Flight Track Log - Related Links

Times and Time Zones

All times are in EDT time to prevent confusion due to time zone crossing. See the FLG3729 flight status page for this flight to view local times or setup timezone preferences in your user account.

Time Position Orientation Groundspeed Altitude Reporting Facility
EDT Latitude Longitude Course Direction KTS MPH feet Rate Location/Type
Fri 06:05:01 AM 42.7319 -73.8081 260° West 134 154 1,400  Level Boston Center
Fri 06:06:04 AM 42.7228 -73.8786 260° West 219 252 3,800 2,226 Climbing Boston Center
Fri 06:07:05 AM 42.7508 -73.9583 296° West 239 275 6,000 2,430 Climbing Boston Center
Fri 06:08:05 AM 42.8083 -74.0250 320° Northwest 255 293 8,700 2,319 Climbing Boston Center
Fri 06:09:04 AM 42.8656 -74.0944 318° Northwest 261 300 10,600 1,438 Climbing Boston Center
Fri 06:10:06 AM 42.9208 -74.1639 317° Northwest 293 337 11,600 1,200 Climbing Boston Center
Fri 06:11:04 AM 42.9967 -74.2569 318° Northwest 324 373 13,000 1,367 Climbing Boston Center
Fri 06:13:06 AM 43.0844 -74.4897 297° West 345 397 15,700 1,367 Climbing Boston Center
Fri 06:14:04 AM 43.1178 -74.5989 293° West 352 405 17,100 1,373 Climbing Boston Center
Fri 06:15:04 AM 43.1528 -74.7256 291° West 352 405 18,400 1,240 Climbing Boston Center
Fri 06:16:05 AM 43.1858 -74.8464 291° West 352 405 19,600 1,131 Climbing Boston Center
Fri 06:17:06 AM 43.2206 -74.9703 291° West 352 405 20,700 934 Climbing Boston Center
Fri 06:18:07 AM 43.2553 -75.0942 291° West 352 405 21,500 661 Climbing Boston Center
Fri 06:19:04 AM 43.2936 -75.2386 290° West 352 405 22,000 667 Climbing Boston Center
Fri 06:20:04 AM 43.3317 -75.3775 291° West 365 420 22,800 700 Climbing Boston Center
Fri 06:21:04 AM 43.3678 -75.5078 291° West 373 429 23,400 600 Climbing Boston Center
Fri 06:22:04 AM 43.4058 -75.6439 291° West 373 429 24,000 600 Climbing Boston Center
Fri 06:23:04 AM 43.4417 -75.7775 290° West 373 429 24,600 600 Climbing Boston Center
Fri 06:24:04 AM 43.4772 -75.9139 290° West 373 429 25,200 611 Climbing Boston Center
Fri 06:25:41 AM 43.5025 -76.1381 279° West 375 432 26,200 625 Climbing Cleveland Center
Fri 06:26:28 AM 43.5000 -76.2000 267° West 370 426 26,700 561 Climbing Toronto Center
Fri 06:27:28 AM 43.4833 -76.3667 262° West 370 426 27,200 500 Climbing Toronto Center
Fri 06:28:28 AM 43.4833 -76.4833 270° West 360 414 27,700 400 Climbing Toronto Center
Fri 06:29:28 AM 43.4833 -76.6500 270° West 360 414 28,000 135 Climbing Toronto Center
Fri 06:30:41 AM 43.5019 -76.8339 278° West 364 419 28,000  Level Cleveland Center
Fri 06:31:41 AM 43.5025 -76.9769 270° West 369 425 28,000  Level Cleveland Center
Fri 06:32:41 AM 43.4733 -77.1189 254° West 369 425 28,000  Level Cleveland Center
Fri 06:33:41 AM 43.4272 -77.2472 244° Southwest 374 430 28,000  Level Cleveland Center
Fri 06:34:41 AM 43.3828 -77.3783 245° Southwest 379 436 28,000  Level Cleveland Center
Fri 06:35:41 AM 43.3364 -77.5119 245° Southwest 385 443 28,000  Level Cleveland Center
Fri 06:36:41 AM 43.2897 -77.6397 243° Southwest 385 443 28,000  Level Cleveland Center
Fri 06:37:41 AM 43.2453 -77.7731 245° Southwest 385 443 28,000  Level Cleveland Center
Fri 06:38:41 AM 43.1983 -77.9033 244° Southwest 385 443 28,000  Level Cleveland Center
Fri 06:39:41 AM 43.1511 -78.0364 244° Southwest 385 443 28,000  Level Cleveland Center
Fri 06:40:41 AM 43.1022 -78.1747 244° Southwest 390 449 28,000  Level Cleveland Center
Fri 06:41:41 AM 43.0528 -78.3075 243° Southwest 390 449 28,000  Level Cleveland Center
Fri 06:42:41 AM 43.0031 -78.4428 243° Southwest 390 449 28,000  Level Cleveland Center
Fri 06:43:41 AM 42.9556 -78.5778 244° Southwest 390 449 28,000  Level Cleveland Center
Fri 06:44:41 AM 42.9264 -78.7119 254° West 405 466 28,000  Level Cleveland Center
Fri 06:45:41 AM 42.9122 -78.8597 263° West 405 466 28,000  Level Cleveland Center
Fri 06:46:41 AM 42.8978 -79.0131 263° West 406 467 28,000  Level Cleveland Center
Fri 06:47:41 AM 42.8850 -79.1636 263° West 406 467 28,000  Level Cleveland Center
Fri 06:48:41 AM 42.8700 -79.3142 262° West 406 467 28,000  Level Cleveland Center
Fri 06:49:41 AM 42.8569 -79.4644 263° West 406 467 28,000  Level Cleveland Center
Fri 06:50:41 AM 42.8397 -79.6150 261° West 406 467 28,000  Level Cleveland Center
Fri 06:51:41 AM 42.8261 -79.7650 263° West 406 467 28,000  Level Cleveland Center
Fri 06:52:41 AM 42.8125 -79.9153 263° West 406 467 28,000  Level Cleveland Center
Fri 06:53:41 AM 42.7906 -80.0853 260° West 413 475 28,000  Level Cleveland Center
Fri 06:54:41 AM 42.7764 -80.2381 263° West 413 475 28,000  Level Cleveland Center
Fri 06:55:41 AM 42.7603 -80.3881 262° West 408 470 28,000  Level Cleveland Center
Fri 06:56:41 AM 42.7436 -80.5381 261° West 408 470 28,000 -50 Level Cleveland Center
Fri 06:57:41 AM 42.7269 -80.6878 261° West 408 470 27,900 -500 Descending Cleveland Center
Fri 06:58:41 AM 42.7122 -80.8206 261° West 413 475 27,000 -950 Descending Cleveland Center
Fri 06:59:41 AM 42.6972 -80.9672 262° West 402 463 26,000 -1,000 Descending Cleveland Center
Fri 07:00:41 AM 42.6819 -81.1114 262° West 387 445 25,000 -1,000 Descending Cleveland Center
Fri 07:01:41 AM 42.6644 -81.2525 260° West 387 445 24,000 -500 Descending Cleveland Center
Fri 07:02:41 AM 42.6511 -81.3906 263° West 387 445 24,000  Level Cleveland Center
Fri 07:03:41 AM 42.6333 -81.5286 260° West 382 440 24,000  Level Cleveland Center
Fri 07:04:41 AM 42.6156 -81.6694 260° West 382 440 24,000  Level Cleveland Center
Fri 07:05:41 AM 42.5972 -81.8242 261° West 382 440 24,000 -1,000 Level Cleveland Center
Fri 07:06:41 AM 42.5769 -81.9647 259° West 382 440 22,000 -2,200 Descending Cleveland Center
Fri 07:07:41 AM 42.5628 -82.0997 262° West 377 434 19,600 -2,345 Descending Cleveland Center
Fri 07:08:31 AM 42.5508 -82.2067 261° West 359 413 17,700 -2,388 Descending Cleveland Center
Fri 07:09:19 AM 42.5367 -82.3217 261° West 356 410 15,700 -2,422 Descending Cleveland Center
Fri 07:10:20 AM 42.5222 -82.4425 261° West 324 373 13,300 -1,781 Descending Cleveland Center
Fri 07:11:27 AM 42.4994 -82.5686 256° West 313 360 11,900 -609 Descending Cleveland Center
Fri 07:12:28 AM 42.4578 -82.6828 244° Southwest 328 377 12,000  Climbing Cleveland Center
Fri 07:13:29 AM 42.4200 -82.7967 246° West 335 386 11,900  Descending Cleveland Center
Fri 07:14:30 AM 42.3761 -82.9133 243° Southwest 331 381 12,000  Climbing Cleveland Center
Fri 07:15:31 AM 42.3364 -83.0214 244° Southwest 320 368 11,900 -155 Descending Cleveland Center
Fri 07:16:26 AM 42.3069 -83.1242 249° West 322 371 11,700 -517 Descending Cleveland Center
Fri 07:17:27 AM 42.2958 -83.2472 263° West 326 375 10,900 -397 Descending Cleveland Center
Fri 07:18:27 AM 42.2808 -83.3589 260° West 260 299 10,900 -149 Level Cleveland Center
Fri 07:19:28 AM 42.2478 -83.4275 237° Southwest 231 266 10,600 -891 Descending Cleveland Center
Fri 07:20:35 AM 42.1900 -83.4922 220° Southwest 227 261 9,000 -1,453 Descending Cleveland Center
Fri 07:21:36 AM 42.1364 -83.5431 215° Southwest 225 259 7,500 -1,525 Descending Cleveland Center
Fri 07:22:37 AM 42.0781 -83.5486 184° South 253 291 5,900 -1,328 Descending Cleveland Center
Fri 07:23:38 AM 42.0778 -83.4703 90° East 220 253 4,800 -1,230 Descending Cleveland Center
Fri 07:24:39 AM 42.1206 -83.4303 35° Northeast 162 186 3,400 -1,500 Descending Cleveland Center
Fri 07:25:34 AM 42.1525 -83.4092 26° Northeast 129 148 1,900 -1,180 Descending Cleveland Center
Fri 07:26:41 AM 42.1883 -83.3828 29° Northeast 134 154 1,000 -806 Descending Cleveland Center

Login

Don't have an account? Register now (free) for customized features, flight alerts, and more!